Time;durP1;ratioP1;P1;durP2;ratioP2;P2;SDS_P1;SDS_P2;PMS_P1;PMS_P2;Temp;Humidity;BMP_temperature;BMP_pressure;BME280_temperature;BME280_humidity;BME280_pressure;Samples;Min_cycle;Max_cycle;Signal;HPM_P1;HPM_P2
2022/03/06 00:01:47;;;;;;;3.30;1.73;;;;;;;-2.35;72.89;99103.25;5044578;28;20112;-53
2022/03/06 00:04:18;;;;;;;3.90;1.65;;;;;;;-2.48;73.83;99093.66;5045131;28;20053;-52
2022/03/06 00:06:49;;;;;;;4.88;1.60;;;;;;;-2.59;75.41;99102.88;5044707;28;20095;-50
2022/03/06 00:09:20;;;;;;;6.93;2.40;;;;;;;-2.57;77.23;99121.63;5044581;28;20068;-51
2022/03/06 00:11:50;;;;;;;8.68;2.05;;;;;;;-2.48;76.06;99121.81;5044365;28;20049;-51
2022/03/06 00:14:23;;;;;;;7.40;1.90;;;;;;;-2.44;77.85;99100.56;5044686;28;20092;-54
2022/03/06 00:16:54;;;;;;;5.05;1.95;;;;;;;-2.61;79.11;99111.34;5043099;28;20410;-53
2022/03/06 00:19:24;;;;;;;9.48;1.95;;;;;;;-2.52;78.49;99130.25;5044658;28;20050;-51
2022/03/06 00:21:55;;;;;;;8.40;1.70;;;;;;;-2.50;78.54;99123.47;5044722;28;20052;-53
2022/03/06 00:24:26;;;;;;;5.95;1.73;;;;;;;-2.56;77.62;99115.69;5043130;28;20059;-50
2022/03/06 00:26:56;;;;;;;3.72;1.90;;;;;;;-2.72;78.81;99112.88;5044893;28;20061;-54
2022/03/06 00:29:29;;;;;;;4.53;1.30;;;;;;;-2.64;78.61;99131.78;5044477;28;20112;-50
2022/03/06 00:31:59;;;;;;;3.60;1.50;;;;;;;-2.65;78.12;99119.78;5044523;28;20083;-53
2022/03/06 00:34:30;;;;;;;3.10;1.55;;;;;;;-2.55;78.38;99104.63;5044737;28;20382;-53
2022/03/06 00:37:01;;;;;;;3.97;1.55;;;;;;;-2.47;78.62;99116.72;5045395;28;20056;-55
2022/03/06 00:39:32;;;;;;;4.28;1.45;;;;;;;-2.41;78.77;99109.16;5044383;28;20045;-55
2022/03/06 00:42:03;;;;;;;4.15;1.70;;;;;;;-2.41;79.36;99111.69;5044277;28;20060;-54
2022/03/06 00:44:36;;;;;;;3.92;1.50;;;;;;;-2.59;79.32;99097.75;5044335;28;20505;-54
2022/03/06 00:47:07;;;;;;;2.85;1.52;;;;;;;-2.47;77.57;99124.41;5044120;28;20116;-54
2022/03/06 00:49:38;;;;;;;2.88;1.17;;;;;;;-2.39;76.25;99109.19;5044076;28;20236;-54
2022/03/06 00:52:09;;;;;;;2.85;1.23;;;;;;;-2.42;76.35;99132.13;5043977;28;20068;-52
2022/03/06 00:54:40;;;;;;;7.25;1.50;;;;;;;-2.26;76.06;99134.13;5044190;28;20331;-54
2022/03/06 00:57:10;;;;;;;5.40;1.80;;;;;;;-2.18;74.65;99132.56;5044428;28;20247;-52
2022/03/06 00:59:43;;;;;;;8.80;1.70;;;;;;;-2.02;74.87;99130.22;5044103;28;20049;-50
2022/03/06 01:02:13;;;;;;;5.00;1.30;;;;;;;-2.04;73.90;99093.53;5044574;28;20052;-53
2022/03/06 01:04:45;;;;;;;4.88;1.40;;;;;;;-2.02;74.17;99132.78;5043795;28;20076;-51
2022/03/06 01:07:15;;;;;;;4.22;1.30;;;;;;;-1.92;74.31;99134.69;5043962;28;20068;-55
2022/03/06 01:09:46;;;;;;;2.38;1.00;;;;;;;-1.95;72.80;99134.63;5043534;28;20057;-54
2022/03/06 01:12:17;;;;;;;7.82;1.67;;;;;;;-1.87;72.95;99168.91;5044045;28;20061;-52
2022/03/06 01:14:50;;;;;;;4.75;1.65;;;;;;;-1.78;73.07;99148.53;5044032;28;20255;-52
2022/03/06 01:17:20;;;;;;;3.40;1.48;;;;;;;-1.82;73.63;99146.78;5043408;28;20052;-54
2022/03/06 01:19:51;;;;;;;4.13;1.40;;;;;;;-1.97;74.65;99169.59;5043862;28;20353;-51
2022/03/06 01:22:22;;;;;;;4.88;1.42;;;;;;;-2.06;75.69;99148.97;5043777;28;20060;-54
2022/03/06 01:24:53;;;;;;;1.33;1.17;;;;;;;-2.10;75.75;99159.97;5043873;28;20200;-52
2022/03/06 01:27:24;;;;;;;5.72;1.45;;;;;;;-2.15;76.98;99141.13;5044060;28;20068;-53
2022/03/06 01:29:56;;;;;;;5.32;1.33;;;;;;;-2.10;77.52;99149.72;5043730;28;20120;-55
2022/03/06 01:32:27;;;;;;;4.13;1.30;;;;;;;-2.14;77.05;99117.28;5044662;28;20508;-55
2022/03/06 01:34:57;;;;;;;3.33;1.00;;;;;;;-2.15;76.95;99151.34;5043803;28;20152;-52
2022/03/06 01:37:28;;;;;;;2.17;1.00;;;;;;;-2.09;76.78;99171.94;5047185;28;20418;-53
2022/03/06 01:39:59;;;;;;;1.00;0.88;;;;;;;-2.04;75.95;99160.09;5047507;28;20411;-52
2022/03/06 01:42:29;;;;;;;2.63;0.98;;;;;;;-2.06;75.81;99159.19;5046828;28;20111;-54
2022/03/06 01:45:02;;;;;;;4.45;1.13;;;;;;;-1.98;75.55;99189.19;5046975;28;20294;-55
2022/03/06 01:47:34;;;;;;;1.85;1.05;;;;;;;-1.98;75.81;99149.94;5047103;28;20083;-52
2022/03/06 01:50:07;;;;;;;2.38;1.13;;;;;;;-2.03;76.27;99156.69;5047406;28;20359;-53
2022/03/06 01:52:38;;;;;;;2.03;1.00;;;;;;;-1.97;76.18;99172.16;5047531;28;20127;-55
2022/03/06 01:55:10;;;;;;;12.48;2.17;;;;;;;-2.05;76.39;99151.53;5046429;28;20077;-55
2022/03/06 01:57:41;;;;;;;1.15;1.05;;;;;;;-2.06;75.80;99166.88;5046113;28;20057;-53
2022/03/06 02:00:17;;;;;;;3.40;1.10;;;;;;;-1.94;76.26;99167.09;5046073;28;20080;-55
2022/03/06 02:02:48;;;;;;;3.80;1.00;;;;;;;-1.93;75.33;99163.66;5045489;28;20056;-52
2022/03/06 02:05:20;;;;;;;1.45;0.90;;;;;;;-2.07;75.33;99195.84;5045889;28;20099;-53
2022/03/06 02:07:50;;;;;;;0.90;0.80;;;;;;;-2.59;75.85;99079.84;5045690;28;20132;-53
2022/03/06 02:10:21;;;;;;;4.28;1.35;;;;;;;-2.18;76.07;99117.19;5045572;28;20453;-52
2022/03/06 02:12:52;;;;;;;3.08;0.82;;;;;;;-1.78;75.61;99161.34;5047128;28;20080;-53
2022/03/06 02:15:24;;;;;;;1.58;0.90;;;;;;;-1.60;75.71;99167.59;5046764;28;20081;-55
2022/03/06 02:17:55;;;;;;;2.17;0.88;;;;;;;-2.05;75.19;99082.41;5046658;28;20053;-53
2022/03/06 02:20:27;;;;;;;0.70;0.70;;;;;;;-1.83;74.49;99152.72;5046992;28;20267;-54
2022/03/06 02:23:00;;;;;;;1.05;0.95;;;;;;;-1.96;76.17;99145.72;5047029;28;20432;-53
2022/03/06 02:25:32;;;;;;;1.67;1.00;;;;;;;-2.50;76.59;99036.50;5046579;28;20064;-55
2022/03/06 02:28:05;;;;;;;1.25;0.85;;;;;;;-1.76;74.65;99162.22;5046727;28;20108;-54
2022/03/06 02:30:39;;;;;;;1.70;0.80;;;;;;;-1.83;74.89;99160.41;5046631;28;20045;-54
2022/03/06 02:33:11;;;;;;;1.10;1.00;;;;;;;-1.80;74.08;99160.47;5047050;28;20172;-55
2022/03/06 02:35:42;;;;;;;7.63;1.00;;;;;;;-1.81;73.18;99137.41;5046651;28;20370;-53
2022/03/06 02:38:14;;;;;;;3.65;1.08;;;;;;;-1.61;72.86;99183.81;5046677;28;20381;-53
2022/03/06 02:40:45;;;;;;;2.20;1.20;;;;;;;-1.60;73.45;99168.47;5046319;28;20120;-54
2022/03/06 02:43:16;;;;;;;0.80;0.80;;;;;;;-1.66;71.98;99164.94;5046266;28;20902;-54
2022/03/06 02:45:47;;;;;;;1.95;1.10;;;;;;;-1.70;73.53;99175.97;5046414;28;20088;-52
2022/03/06 02:48:19;;;;;;;2.05;1.00;;;;;;;-2.00;73.38;99098.72;5045201;28;20052;-53
2022/03/06 02:50:51;;;;;;;3.40;1.10;;;;;;;-1.86;72.50;99124.53;5046184;28;20083;-51
2022/03/06 02:53:24;;;;;;;1.70;1.15;;;;;;;-1.72;72.33;99188.78;5046386;28;20076;-53
2022/03/06 02:55:55;;;;;;;2.92;1.00;;;;;;;-1.60;71.96;99180.41;5046040;28;20070;-51
2022/03/06 02:58:26;;;;;;;1.50;1.08;;;;;;;-1.71;72.43;99170.00;5046125;28;20053;-54
2022/03/06 03:00:56;;;;;;;2.45;1.00;;;;;;;-1.64;72.70;99170.97;5046105;28;20055;-53
2022/03/06 03:03:27;;;;;;;2.88;1.17;;;;;;;-1.75;73.67;99169.09;5045969;28;20076;-53
2022/03/06 03:05:58;;;;;;;0.80;0.80;;;;;;;-2.31;73.14;99074.34;5046364;28;20340;-53
2022/03/06 03:08:30;;;;;;;2.17;1.00;;;;;;;-1.76;74.36;99162.22;5045631;28;20050;-50
2022/03/06 03:11:01;;;;;;;1.23;0.95;;;;;;;-1.70;74.09;99175.97;5045954;28;20057;-55
2022/03/06 03:13:31;;;;;;;0.70;0.70;;;;;;;-1.87;74.33;99183.38;5045716;28;20056;-50
2022/03/06 03:16:02;;;;;;;0.98;0.90;;;;;;;-1.99;75.81;99194.31;5045979;28;20120;-53
2022/03/06 03:18:33;;;;;;;0.80;0.80;;;;;;;-1.99;75.68;99181.50;5045817;28;20046;-54
2022/03/06 03:21:03;;;;;;;1.70;1.00;;;;;;;-1.95;75.98;99190.94;5045559;28;20067;-52
2022/03/06 03:23:36;;;;;;;1.38;0.90;;;;;;;-1.94;75.69;99177.31;5045824;28;20371;-54
2022/03/06 03:26:06;;;;;;;1.17;0.95;;;;;;;-1.84;75.83;99181.75;5045792;28;20077;-52
2022/03/06 03:28:38;;;;;;;0.93;0.70;;;;;;;-1.90;75.12;99184.19;5045974;28;20048;-50
2022/03/06 03:31:08;;;;;;;0.70;0.70;;;;;;;-1.77;75.92;99157.97;5045991;28;20088;-54
2022/03/06 03:33:39;;;;;;;0.82;0.80;;;;;;;-1.63;74.75;99177.78;5045996;28;20288;-51
2022/03/06 03:36:11;;;;;;;1.00;0.90;;;;;;;-1.57;75.74;99162.53;5045833;28;20120;-51
2022/03/06 03:38:43;;;;;;;0.98;0.90;;;;;;;-1.52;75.91;99166.03;5045391;28;20083;-53
2022/03/06 03:41:14;;;;;;;1.70;1.25;;;;;;;-1.53;75.91;99174.53;5045652;28;20044;-51
2022/03/06 03:43:45;;;;;;;3.42;1.70;;;;;;;-1.73;76.01;99172.53;5045461;28;20057;-50
2022/03/06 03:46:16;;;;;;;5.40;1.30;;;;;;;-1.75;76.69;99163.97;5044969;28;20347;-51
2022/03/06 03:48:47;;;;;;;3.35;1.20;;;;;;;-2.22;75.76;99059.16;5045680;28;20088;-52
2022/03/06 03:51:18;;;;;;;2.75;1.20;;;;;;;-1.85;76.02;99174.88;5044829;28;20045;-49
2022/03/06 03:53:50;;;;;;;2.60;1.23;;;;;;;-2.80;75.59;99034.28;5045321;28;20069;-50
2022/03/06 03:56:21;;;;;;;5.18;1.67;;;;;;;-1.96;76.22;99173.88;5044965;28;20116;-53
2022/03/06 03:58:52;;;;;;;8.60;1.35;;;;;;;-1.97;75.67;99177.28;5044835;28;20175;-51
2022/03/06 04:01:23;;;;;;;2.88;1.27;;;;;;;-2.53;75.97;99113.19;5045149;28;20103;-54
2022/03/06 04:03:54;;;;;;;3.78;1.10;;;;;;;-2.18;75.92;99183.72;5044626;28;20061;-52
2022/03/06 04:06:25;;;;;;;2.75;1.10;;;;;;;-2.19;76.18;99179.47;5044736;28;20197;-54
2022/03/06 04:08:57;;;;;;;3.38;1.20;;;;;;;-2.22;76.45;99146.16;5044949;28;20080;-52
2022/03/06 04:11:28;;;;;;;2.95;1.08;;;;;;;-2.25;75.18;99181.91;5044575;28;20045;-53
2022/03/06 04:13:59;;;;;;;4.43;1.10;;;;;;;-2.26;76.60;99167.41;5044889;28;20071;-55
2022/03/06 04:16:29;;;;;;;4.63;1.00;;;;;;;-2.17;76.35;99185.47;5043937;28;20060;-55
2022/03/06 04:19:00;;;;;;;2.90;1.27;;;;;;;-2.13;75.28;99165.06;5044806;28;20288;-53
2022/03/06 04:21:31;;;;;;;5.53;1.60;;;;;;;-2.26;76.21;99175.06;5045163;28;20381;-55
2022/03/06 04:24:04;;;;;;;2.70;1.00;;;;;;;-2.46;75.35;99131.22;5044935;28;20087;-55
2022/03/06 04:26:34;;;;;;;1.10;1.00;;;;;;;-2.54;76.40;99177.97;5044539;28;20099;-55
2022/03/06 04:29:06;;;;;;;6.35;1.08;;;;;;;-2.50;76.39;99175.47;5044688;28;20052;-54
2022/03/06 04:31:36;;;;;;;5.25;1.08;;;;;;;-2.44;77.08;99164.53;5044662;28;20396;-51
2022/03/06 04:34:08;;;;;;;1.00;0.90;;;;;;;-2.42;76.23;99183.28;5044962;28;20052;-53
2022/03/06 04:36:38;;;;;;;2.75;1.10;;;;;;;-2.34;76.54;99186.03;5044794;28;20053;-51
2022/03/06 04:39:11;;;;;;;2.13;1.00;;;;;;;-2.56;75.74;99152.38;5044525;28;20060;-51
2022/03/06 04:41:41;;;;;;;2.55;0.98;;;;;;;-2.52;75.14;99181.41;5044457;28;20076;-50
2022/03/06 04:44:13;;;;;;;2.15;1.20;;;;;;;-2.86;75.99;99114.31;5044400;28;20063;-53
2022/03/06 04:46:46;;;;;;;1.13;1.10;;;;;;;-2.54;76.87;99162.63;5044661;28;20283;-51
2022/03/06 04:49:17;;;;;;;4.60;1.40;;;;;;;-2.65;75.36;99155.59;5044142;28;20057;-53
2022/03/06 04:51:48;;;;;;;7.45;1.55;;;;;;;-2.64;76.71;99167.56;5044165;28;20346;-54
2022/03/06 04:54:21;;;;;;;9.00;2.85;;;;;;;-2.72;77.02;99146.13;5044167;28;20060;-53
2022/03/06 04:56:51;;;;;;;2.92;1.10;;;;;;;-2.66;77.12;99179.47;5044612;28;20115;-54
2022/03/06 04:59:22;;;;;;;2.05;1.15;;;;;;;-2.64;77.37;99193.13;5044156;28;20048;-53
2022/03/06 05:01:53;;;;;;;8.13;1.10;;;;;;;-2.69;77.24;99197.31;5044316;28;20129;-51
2022/03/06 05:04:24;;;;;;;2.85;1.40;;;;;;;-2.76;77.98;99198.00;5044158;28;20136;-52
2022/03/06 05:06:55;;;;;;;3.95;1.20;;;;;;;-2.89;75.97;99221.63;5044145;28;20375;-53
2022/03/06 05:09:27;;;;;;;1.92;1.35;;;;;;;-3.05;77.86;99200.81;5044147;28;20045;-54
2022/03/06 05:11:58;;;;;;;1.45;1.10;;;;;;;-3.09;78.41;99201.59;5046992;28;20045;-54
2022/03/06 05:14:29;;;;;;;1.45;1.00;;;;;;;-3.13;78.74;99212.59;5048666;28;20061;-53
2022/03/06 05:16:59;;;;;;;2.78;1.40;;;;;;;-3.19;78.34;99197.13;5048714;28;20087;-52
2022/03/06 05:19:30;;;;;;;2.15;1.10;;;;;;;-3.38;78.67;99182.22;5047806;28;20252;-52
2022/03/06 05:22:01;;;;;;;3.78;1.50;;;;;;;-3.65;78.68;99165.44;5048140;28;20094;-51
2022/03/06 05:24:33;;;;;;;5.18;1.45;;;;;;;-3.45;78.49;99221.22;5048321;28;20175;-53
2022/03/06 05:27:04;;;;;;;1.83;1.30;;;;;;;-3.39;79.15;99239.25;5047783;28;20298;-52
2022/03/06 05:29:35;;;;;;;3.50;1.48;;;;;;;-3.51;79.18;99233.03;5047905;28;20121;-51
2022/03/06 05:32:06;;;;;;;2.58;1.17;;;;;;;-3.48;78.31;99245.88;5047436;28;20282;-53
2022/03/06 05:34:37;;;;;;;2.65;1.50;;;;;;;-3.52;79.60;99249.19;5047671;28;20054;-56
2022/03/06 05:37:07;;;;;;;4.03;1.60;;;;;;;-3.93;79.97;99176.72;5048757;28;20067;-54
2022/03/06 05:39:40;;;;;;;4.28;1.45;;;;;;;-3.58;79.83;99253.28;5046542;28;20243;-53
2022/03/06 05:42:11;;;;;;;4.30;1.58;;;;;;;-3.66;79.86;99265.00;5046834;28;20104;-51
2022/03/06 05:44:41;;;;;;;5.65;1.58;;;;;;;-3.69;80.14;99251.34;5046506;28;20057;-53
2022/03/06 05:47:12;;;;;;;4.10;1.23;;;;;;;-3.65;79.91;99257.38;5046792;28;20102;-53
2022/03/06 05:49:43;;;;;;;2.95;1.30;;;;;;;-3.63;79.29;99242.94;5046347;28;20056;-53
2022/03/06 05:52:14;;;;;;;6.60;1.50;;;;;;;-3.75;79.16;99251.16;5046360;28;20361;-54
2022/03/06 05:54:46;;;;;;;1.30;1.20;;;;;;;-3.69;79.51;99260.69;5046835;28;20049;-54
2022/03/06 05:57:17;;;;;;;2.05;1.15;;;;;;;-3.68;79.23;99257.28;5046154;28;20052;-51
2022/03/06 05:59:47;;;;;;;2.60;1.13;;;;;;;-3.91;78.88;99229.53;5046486;28;20044;-51
2022/03/06 06:02:19;;;;;;;6.57;1.58;;;;;;;-3.70;78.89;99266.59;5046090;28;20120;-52
2022/03/06 06:04:50;;;;;;;5.50;1.70;;;;;;;-3.79;78.86;99253.63;5046809;28;20120;-54
2022/03/06 06:07:21;;;;;;;4.57;1.60;;;;;;;-3.73;79.35;99274.19;5045946;28;20073;-54
2022/03/06 06:09:53;;;;;;;3.83;1.45;;;;;;;-3.73;79.15;99315.03;5045890;28;20055;-54
2022/03/06 06:12:24;;;;;;;6.18;1.80;;;;;;;-3.79;79.41;99285.13;5046043;28;20053;-52
2022/03/06 06:14:54;;;;;;;3.10;1.73;;;;;;;-3.87;79.91;99285.72;5046415;28;20057;-51
2022/03/06 06:17:25;;;;;;;3.42;1.55;;;;;;;-3.83;80.46;99307.97;5046130;28;20056;-54
2022/03/06 06:19:56;;;;;;;2.47;1.33;;;;;;;-3.85;80.16;99299.41;5045926;28;20112;-54
2022/03/06 06:22:28;;;;;;;1.70;1.27;;;;;;;-3.84;80.43;99308.78;5045917;28;20053;-50
2022/03/06 06:25:01;;;;;;;7.07;1.60;;;;;;;-3.92;81.16;99319.69;5046318;28;20091;-53
2022/03/06 06:27:31;;;;;;;3.40;1.75;;;;;;;-3.97;81.72;99317.81;5046680;28;20251;-51
2022/03/06 06:30:02;;;;;;;5.05;1.63;;;;;;;-3.98;81.90;99322.06;5046744;28;20083;-53
2022/03/06 06:32:33;;;;;;;3.70;1.52;;;;;;;-4.06;81.52;99310.78;5046977;28;20274;-51
2022/03/06 06:35:03;;;;;;;2.45;1.42;;;;;;;-4.03;81.46;99320.22;5046642;28;20053;-51
2022/03/06 06:37:34;;;;;;;3.80;2.05;;;;;;;-4.08;81.71;99327.72;5046612;28;20071;-54
2022/03/06 06:40:08;;;;;;;5.22;1.70;;;;;;;-4.05;81.56;99327.81;5046655;28;20057;-55
2022/03/06 06:42:38;;;;;;;4.07;1.80;;;;;;;-4.04;81.23;99323.56;5046585;28;20092;-54
2022/03/06 06:45:10;;;;;;;3.97;1.30;;;;;;;-4.06;80.58;99331.19;5046682;28;20053;-54
2022/03/06 06:47:40;;;;;;;3.75;1.50;;;;;;;-4.04;81.08;99323.56;5046664;28;20213;-52
2022/03/06 06:50:12;;;;;;;3.63;1.40;;;;;;;-4.14;81.13;99314.81;5046516;28;20080;-50
2022/03/06 06:52:43;;;;;;;3.15;1.30;;;;;;;-4.10;81.57;99334.47;5046373;28;20117;-51
2022/03/06 06:55:15;;;;;;;3.72;1.77;;;;;;;-4.15;81.55;99336.91;5046845;28;20057;-51
2022/03/06 06:57:46;;;;;;;3.03;1.20;;;;;;;-4.16;81.78;99334.31;5046247;28;20311;-52
2022/03/06 07:00:18;;;;;;;2.83;1.45;;;;;;;-4.18;82.28;99349.56;5046305;28;20082;-51
2022/03/06 07:02:48;;;;;;;3.25;1.35;;;;;;;-4.21;82.24;99339.28;5046046;28;20084;-50
2022/03/06 07:05:19;;;;;;;3.90;1.50;;;;;;;-4.21;82.30;99335.88;5045959;28;20390;-51
2022/03/06 07:07:50;;;;;;;1.52;1.30;;;;;;;-4.23;82.25;99342.63;5046139;28;20389;-50
2022/03/06 07:10:22;;;;;;;2.55;1.38;;;;;;;-4.27;82.55;99371.41;5046175;28;20068;-53
2022/03/06 07:12:55;;;;;;;3.22;1.40;;;;;;;-4.39;82.67;99326.91;5046079;28;20053;-51
2022/03/06 07:15:28;;;;;;;6.82;1.65;;;;;;;-4.52;82.42;99308.63;5045654;28;20744;-53
2022/03/06 07:17:59;;;;;;;1.88;1.40;;;;;;;-4.31;82.42;99370.47;5045855;28;20048;-53
2022/03/06 07:20:30;;;;;;;5.35;1.55;;;;;;;-4.40;82.08;99325.16;5045840;28;20073;-51
2022/03/06 07:23:05;;;;;;;3.17;1.33;;;;;;;-4.34;82.62;99371.25;5045768;28;20102;-52
2022/03/06 07:25:38;;;;;;;4.65;2.22;;;;;;;-4.51;82.48;99367.34;5045615;28;20053;-50
2022/03/06 07:28:09;;;;;;;4.13;1.73;;;;;;;-4.34;82.69;99378.91;5045467;28;20055;-51
2022/03/06 07:30:39;;;;;;;6.18;1.40;;;;;;;-4.36;82.66;99377.97;5045687;28;20045;-51
2022/03/06 07:33:10;;;;;;;1.50;1.40;;;;;;;-4.45;82.75;99387.91;5045143;28;20068;-50
2022/03/06 07:35:41;;;;;;;3.30;1.40;;;;;;;-4.42;82.58;99376.94;5045271;28;20107;-51
2022/03/06 07:38:12;;;;;;;2.28;1.52;;;;;;;-4.39;82.75;99387.25;5045625;28;20073;-52
2022/03/06 07:40:44;;;;;;;1.73;1.38;;;;;;;-4.43;82.78;99383.72;5045760;28;20060;-54
2022/03/06 07:43:15;;;;;;;6.65;1.52;;;;;;;-4.45;83.12;99398.09;5045720;28;20108;-51
2022/03/06 07:45:45;;;;;;;3.20;1.30;;;;;;;-4.47;83.40;99386.97;5046036;28;20322;-51
2022/03/06 07:48:16;;;;;;;3.35;1.40;;;;;;;-4.47;83.36;99409.06;5045502;28;20095;-50
2022/03/06 07:50:47;;;;;;;3.63;1.70;;;;;;;-4.51;83.45;99395.38;5045613;28;20120;-53
2022/03/06 07:53:18;;;;;;;3.45;1.73;;;;;;;-4.50;83.23;99404.75;5044990;28;20330;-52
2022/03/06 07:55:50;;;;;;;3.15;1.67;;;;;;;-4.49;83.05;99401.41;5045027;28;20386;-52
2022/03/06 07:58:21;;;;;;;1.20;1.10;;;;;;;-4.50;83.34;99403.91;5045077;28;20099;-51
2022/03/06 08:00:52;;;;;;;3.28;1.20;;;;;;;-4.71;83.26;99394.78;5044896;28;20065;-53
2022/03/06 08:03:22;;;;;;;5.10;1.45;;;;;;;-4.55;82.82;99430.09;5044992;28;20390;-53
2022/03/06 08:05:54;;;;;;;4.07;1.73;;;;;;;-4.51;83.14;99428.53;5044989;28;20338;-52
2022/03/06 08:08:24;;;;;;;2.88;1.25;;;;;;;-4.53;82.88;99426.75;5044714;28;20267;-52
2022/03/06 08:10:57;;;;;;;3.55;1.55;;;;;;;-4.54;83.27;99438.63;5044709;28;20083;-52
2022/03/06 08:13:28;;;;;;;2.58;1.35;;;;;;;-4.53;83.22;99442.91;5044658;28;20045;-50
2022/03/06 08:15:59;;;;;;;3.20;1.80;;;;;;;-4.53;82.85;99444.59;5045613;28;20114;-51
2022/03/06 08:18:29;;;;;;;6.68;1.30;;;;;;;-4.54;82.38;99433.53;5044992;28;20054;-55
2022/03/06 08:21:00;;;;;;;3.05;1.30;;;;;;;-4.51;82.14;99448.94;5044722;28;20148;-54
2022/03/06 08:23:31;;;;;;;2.55;1.30;;;;;;;-4.51;81.99;99454.03;5044965;28;20095;-54
2022/03/06 08:26:03;;;;;;;3.58;1.77;;;;;;;-4.52;82.10;99452.28;5044184;28;20244;-53
2022/03/06 08:28:34;;;;;;;6.47;1.45;;;;;;;-4.52;81.95;99467.56;5044446;28;20098;-54
2022/03/06 08:31:05;;;;;;;3.35;1.48;;;;;;;-4.55;82.21;99470.91;5044350;28;20045;-51
2022/03/06 08:33:36;;;;;;;1.58;1.20;;;;;;;-4.55;81.87;99483.63;5044492;28;20053;-52
2022/03/06 08:36:07;;;;;;;2.80;1.27;;;;;;;-4.57;82.21;99474.22;5039599;28;20051;-54
2022/03/06 08:38:37;;;;;;;6.35;1.80;;;;;;;-4.55;81.35;99482.78;5044035;28;20274;-53
2022/03/06 08:41:10;;;;;;;3.95;1.30;;;;;;;-4.55;81.50;99487.88;5044568;28;20089;-53
2022/03/06 08:43:40;;;;;;;4.38;1.50;;;;;;;-4.54;81.58;99489.63;5044412;28;20060;-53
2022/03/06 08:46:11;;;;;;;6.20;1.50;;;;;;;-4.54;81.30;99489.63;5043636;28;20067;-51
2022/03/06 08:48:42;;;;;;;3.90;1.45;;;;;;;-4.51;80.61;99499.91;5044248;28;20063;-53
2022/03/06 08:51:13;;;;;;;2.75;1.20;;;;;;;-4.61;80.05;99497.91;5043987;28;20227;-53
2022/03/06 08:53:44;;;;;;;5.40;1.48;;;;;;;-4.51;80.17;99524.56;5044234;28;20235;-52
2022/03/06 08:56:16;;;;;;;2.25;1.45;;;;;;;-4.53;79.85;99516.84;5043960;28;20091;-53
2022/03/06 08:58:47;;;;;;;3.90;1.50;;;;;;;-4.63;79.89;99505.50;5044260;28;20042;-51
2022/03/06 09:01:18;;;;;;;4.03;1.40;;;;;;;-4.50;79.56;99534.78;5044222;28;20056;-54
2022/03/06 09:03:49;;;;;;;2.03;1.42;;;;;;;-4.51;79.35;99522.88;5044369;28;20055;-52
2022/03/06 09:06:20;;;;;;;1.73;1.23;;;;;;;-4.50;79.71;99537.34;5044295;28;20051;-53
2022/03/06 09:08:50;;;;;;;3.42;1.45;;;;;;;-4.53;79.10;99537.25;5044051;28;20284;-51
2022/03/06 09:11:23;;;;;;;8.02;1.50;;;;;;;-4.93;79.26;99471.38;5043955;28;20105;-54
2022/03/06 09:13:54;;;;;;;4.75;1.98;;;;;;;-4.54;79.47;99535.53;5043849;28;20049;-53
2022/03/06 09:16:24;;;;;;;2.80;1.30;;;;;;;-4.57;79.39;99527.75;5044091;28;20042;-52
2022/03/06 09:18:55;;;;;;;2.13;1.20;;;;;;;-4.54;79.56;99545.72;5044331;28;20076;-53
2022/03/06 09:21:27;;;;;;;2.25;1.30;;;;;;;-4.56;79.39;99552.44;5043783;28;20128;-53
2022/03/06 09:23:59;;;;;;;3.42;1.45;;;;;;;-4.56;79.49;99560.09;5043983;28;20299;-51
2022/03/06 09:26:31;;;;;;;4.47;2.05;;;;;;;-4.55;79.11;99569.47;5043961;28;20053;-53
2022/03/06 09:29:02;;;;;;;2.55;1.50;;;;;;;-4.56;79.20;99583.03;5043825;28;20076;-54
2022/03/06 09:31:32;;;;;;;2.42;1.70;;;;;;;-4.57;78.95;99578.75;5044084;28;20164;-50
2022/03/06 09:34:03;;;;;;;5.90;1.10;;;;;;;-4.57;78.66;99566.00;5043644;28;20049;-52
2022/03/06 09:36:47;;;;;;;3.58;1.55;;;;;;;-4.57;78.98;99571.09;5044123;28;20068;-51
2022/03/06 09:39:18;;;;;;;3.53;1.20;;;;;;;-4.59;78.74;99568.50;5043632;28;20053;-51
2022/03/06 09:41:51;;;;;;;7.05;2.33;;;;;;;-4.66;78.54;99591.22;5043832;28;20049;-51
2022/03/06 09:44:24;;;;;;;3.38;1.40;;;;;;;-4.58;78.41;99587.22;5044077;28;20117;-51
2022/03/06 09:46:56;;;;;;;6.45;1.80;;;;;;;-4.59;78.40;99604.22;5043994;28;20047;-54
2022/03/06 09:49:28;;;;;;;2.28;1.20;;;;;;;-4.73;78.37;99579.06;5043778;28;20337;-51
2022/03/06 09:51:59;;;;;;;4.00;1.20;;;;;;;-4.63;78.08;99601.50;5043364;28;20068;-50
2022/03/06 09:54:29;;;;;;;6.72;1.52;;;;;;;-4.61;77.64;99599.88;5043504;28;20053;-54
2022/03/06 09:57:02;;;;;;;1.95;1.17;;;;;;;-4.61;77.32;99615.16;5044465;28;20113;-54
2022/03/06 09:59:34;;;;;;;5.55;1.23;;;;;;;-4.63;76.49;99601.50;5047463;28;20065;-52
2022/03/06 10:02:07;;;;;;;5.10;1.30;;;;;;;-4.86;77.15;99568.44;5046955;28;21037;-52
2022/03/06 10:04:38;;;;;;;4.03;1.40;;;;;;;-4.65;76.80;99618.41;5046891;28;20385;-51
2022/03/06 10:07:11;;;;;;;4.38;1.45;;;;;;;-5.11;76.41;99550.59;5046991;28;20301;-50
2022/03/06 10:09:46;;;;;;;3.15;1.35;;;;;;;-4.80;76.07;99609.44;5047140;28;20073;-51
2022/03/06 10:12:27;;;;;;;2.13;1.30;;;;;;;-4.74;75.19;99607.91;5047169;28;20358;-52
2022/03/06 10:15:00;;;;;;;1.05;1.00;;;;;;;-4.77;75.88;99640.13;5046672;28;20282;-50
2022/03/06 10:17:32;;;;;;;1.35;1.25;;;;;;;-5.03;75.59;99595.03;5047384;28;20362;-51
2022/03/06 10:20:05;;;;;;;4.03;1.50;;;;;;;-5.27;75.33;99560.22;5047120;28;20045;-52
2022/03/06 10:22:37;;;;;;;2.63;1.20;;;;;;;-5.29;75.58;99559.31;5046618;28;20045;-53
2022/03/06 10:25:10;;;;;;;2.67;1.33;;;;;;;-4.94;75.63;99636.13;5047192;28;20056;-50
2022/03/06 10:27:53;;;;;;;1.95;1.23;;;;;;;-4.87;75.55;99653.34;5046626;28;20065;-50
2022/03/06 10:30:27;;;;;;;2.25;1.20;;;;;;;-5.00;75.62;99657.13;5046633;28;20283;-53
2022/03/06 10:32:59;;;;;;;3.47;1.50;;;;;;;-4.92;75.45;99638.72;5046524;28;20056;-54
2022/03/06 10:35:35;;;;;;;2.80;1.30;;;;;;;-4.93;75.56;99653.13;5046708;28;20065;-49
2022/03/06 10:38:22;;;;;;;1.80;1.33;;;;;;;-4.96;75.66;99642.84;5046324;28;20045;-52
2022/03/06 10:40:54;;;;;;;6.35;1.30;;;;;;;-5.09;75.03;99636.44;5046577;28;20323;-55
2022/03/06 10:43:28;;;;;;;3.10;1.40;;;;;;;-4.97;75.48;99671.66;5046417;28;20077;-51
2022/03/06 10:46:10;;;;;;;1.90;1.50;;;;;;;-5.08;75.28;99650.03;5046025;28;20325;-52
2022/03/06 10:48:41;;;;;;;7.68;1.92;;;;;;;-5.11;75.05;99657.59;5046560;28;20080;-50
2022/03/06 10:51:14;;;;;;;2.60;1.40;;;;;;;-5.02;75.14;99652.81;5046283;28;20052;-50
2022/03/06 10:53:45;;;;;;;2.78;1.30;;;;;;;-5.07;75.19;99675.56;5046162;28;20053;-53
2022/03/06 10:56:17;;;;;;;2.80;1.50;;;;;;;-5.58;75.29;99588.81;5046204;28;20933;-50
2022/03/06 10:58:50;;;;;;;3.13;1.27;;;;;;;-5.10;74.57;99715.34;5046154;28;20049;-52
2022/03/06 11:01:29;;;;;;;3.05;1.30;;;;;;;-5.24;75.11;99652.03;5046036;28;20098;-51
2022/03/06 11:04:02;;;;;;;3.38;1.30;;;;;;;-5.22;74.88;99665.72;5046241;28;20084;-51
2022/03/06 11:06:39;;;;;;;4.07;1.50;;;;;;;-5.18;74.70;99691.28;5045921;28;20056;-52
2022/03/06 11:09:13;;;;;;;2.20;1.50;;;;;;;-5.69;75.15;99595.16;5045025;28;20392;-51
2022/03/06 11:11:45;;;;;;;5.35;1.30;;;;;;;-5.24;74.80;99677.50;5045810;28;20060;-53
2022/03/06 11:14:19;;;;;;;4.00;1.58;;;;;;;-5.72;74.29;99595.91;5046083;28;20068;-52
2022/03/06 11:16:49;;;;;;;1.90;1.58;;;;;;;-5.27;74.61;99669.72;5045720;28;20080;-53
2022/03/06 11:19:20;;;;;;;1.17;1.10;;;;;;;-5.24;74.05;99692.78;5046095;28;20045;-52
2022/03/06 11:21:56;;;;;;;3.42;1.42;;;;;;;-6.03;73.84;99577.78;5046027;28;20045;-50
2022/03/06 11:24:30;;;;;;;2.65;1.20;;;;;;;-5.23;74.39;99699.59;5045934;28;20061;-52
2022/03/06 11:27:25;;;;;;;1.48;1.30;;;;;;;-5.61;74.64;99654.03;5046048;28;20088;-52
2022/03/06 11:30:07;;;;;;;2.30;1.48;;;;;;;-5.40;74.68;99698.09;5046296;28;20076;-52
2022/03/06 11:32:41;;;;;;;1.13;1.02;;;;;;;-5.59;74.39;99688.00;5045451;28;20327;-54
2022/03/06 11:35:16;;;;;;;1.77;1.35;;;;;;;-5.39;74.92;99710.03;5045238;28;20056;-54
2022/03/06 11:37:51;;;;;;;1.10;1.10;;;;;;;-5.38;75.00;99716.84;5045632;28;20052;-53
2022/03/06 11:40:44;;;;;;;1.60;1.50;;;;;;;-5.40;75.06;99713.38;5045851;28;20058;-51
2022/03/06 11:43:35;;;;;;;1.67;1.33;;;;;;;-5.44;74.97;99714.09;5025917;28;20053;-51
2022/03/06 11:46:12;;;;;;;2.40;1.30;;;;;;;-5.94;74.92;99644.28;5025709;28;20093;-53
2022/03/06 11:49:13;;;;;;;1.75;1.40;;;;;;;-5.51;75.15;99712.09;5025664;28;20121;-53
2022/03/06 11:51:46;;;;;;;1.50;1.40;;;;;;;-5.52;75.46;99710.34;5025242;28;20116;-51
2022/03/06 11:54:24;;;;;;;2.20;1.23;;;;;;;-5.96;75.17;99651.00;5025284;28;20072;-52
2022/03/06 11:56:58;;;;;;;1.88;1.35;;;;;;;-5.52;75.37;99720.53;5024481;28;20057;-54